Time;durP1;ratioP1;P1;durP2;ratioP2;P2;SDS_P1;SDS_P2;PMS_P1;PMS_P2;Temp;Humidity;BMP_temperature;BMP_pressure;BME280_temperature;BME280_humidity;BME280_pressure;Samples;Min_cycle;Max_cycle;Signal;HPM_P1;HPM_P2
2021/06/06 00:00:13;;;;;;;37.45;24.10;;;14.90;95.70;;;;;;5071841;28;20025;-74
2021/06/06 00:02:39;;;;;;;36.50;23.80;;;14.90;95.70;;;;;;5073207;28;20033;-75
2021/06/06 00:05:05;;;;;;;36.95;23.00;;;14.90;95.70;;;;;;5038842;28;20037;-75
2021/06/06 00:07:31;;;;;;;40.53;25.63;;;14.90;95.80;;;;;;5075222;28;20025;-75
2021/06/06 00:09:56;;;;;;;42.28;25.00;;;14.90;95.80;;;;;;5059467;28;20039;-74
2021/06/06 00:12:22;;;;;;;36.55;23.67;;;14.90;95.80;;;;;;5075968;28;20472;-75
2021/06/06 00:14:48;;;;;;;34.72;22.73;;;14.80;95.70;;;;;;5075974;28;20033;-76
2021/06/06 00:17:13;;;;;;;37.83;24.13;;;14.80;95.70;;;;;;5076959;28;20034;-76
2021/06/06 00:19:39;;;;;;;38.20;24.52;;;14.90;95.70;;;;;;5075904;28;20119;-76
2021/06/06 00:22:06;;;;;;;38.40;23.63;;;14.90;95.70;;;;;;5076874;28;20031;-76
2021/06/06 00:24:35;;;;;;;47.20;27.50;;;14.90;95.70;;;;;;5075522;28;20033;-76
2021/06/06 00:27:02;;;;;;;40.25;25.85;;;14.90;95.80;;;;;;5075362;28;20464;-76
2021/06/06 00:29:28;;;;;;;48.00;26.58;;;14.90;95.80;;;;;;5058675;28;20048;-75
2021/06/06 00:31:54;;;;;;;47.83;26.95;;;14.90;95.80;;;;;;5076452;28;20063;-76
2021/06/06 00:34:21;;;;;;;43.70;26.90;;;15.00;95.80;;;;;;5076675;28;20472;-76
2021/06/06 00:36:47;;;;;;;49.13;28.38;;;14.90;95.80;;;;;;5058725;28;20123;-76
2021/06/06 00:39:13;;;;;;;48.33;28.88;;;14.90;95.80;;;;;;5075287;28;20111;-76
2021/06/06 00:41:41;;;;;;;52.03;28.42;;;14.90;95.80;;;;;;5076357;28;20445;-75
2021/06/06 00:44:07;;;;;;;54.50;29.77;;;14.80;95.80;;;;;;5074889;28;20380;-75
2021/06/06 00:46:34;;;;;;;49.25;28.52;;;14.80;96.10;;;;;;5075196;28;20040;-76
2021/06/06 00:49:00;;;;;;;49.45;27.35;;;14.80;95.80;;;;;;5076210;28;20047;-76
2021/06/06 00:51:53;;;;;;;54.63;29.70;;;14.80;95.90;;;;;;5075039;28;20020;-75
2021/06/06 00:54:29;;;;;;;54.47;30.88;;;14.80;95.80;;;;;;5076230;28;20029;-75
2021/06/06 00:57:05;;;;;;;58.63;30.52;;;14.80;95.90;;;;;;5075921;28;20112;-75
2021/06/06 00:59:33;;;;;;;60.45;30.50;;;14.80;95.90;;;;;;5074536;28;20404;-75
2021/06/06 01:01:59;;;;;;;58.35;30.00;;;14.80;95.90;;;;;;5076159;28;20472;-76
2021/06/06 01:04:25;;;;;;;50.20;28.88;;;14.80;96.00;;;;;;5074596;28;20039;-77
2021/06/06 01:06:53;;;;;;;52.47;28.38;;;14.80;95.90;;;;;;5075999;28;20051;-76
2021/06/06 01:09:21;;;;;;;56.03;29.27;;;14.80;96.00;;;;;;5074532;28;20059;-77
2021/06/06 01:12:14;;;;;;;51.10;28.20;;;14.80;95.90;;;;;;5075296;28;20414;-76
2021/06/06 01:14:56;;;;;;;47.72;25.77;;;14.80;95.90;;;;;;5074576;28;20032;-77
2021/06/06 01:17:46;;;;;;;53.38;26.65;;;14.80;95.90;;;;;;5075657;28;20459;-75
2021/06/06 01:20:29;;;;;;;55.30;25.42;;;14.90;96.00;;;;;;5075883;28;20027;-76
2021/06/06 01:23:03;;;;;;;53.47;26.40;;;14.80;95.90;;;;;;5074512;28;20024;-75
2021/06/06 01:25:42;;;;;;;50.40;25.75;;;14.80;95.90;;;;;;5074530;28;20063;-75
2021/06/06 01:28:17;;;;;;;51.90;24.85;;;14.80;95.90;;;;;;5074682;28;20479;-76
2021/06/06 01:30:50;;;;;;;47.25;23.63;;;14.80;95.90;;;;;;5075346;28;20043;-76
2021/06/06 01:33:24;;;;;;;52.33;24.55;;;14.80;95.90;;;;;;5075800;28;20024;-75
2021/06/06 01:36:05;;;;;;;42.78;23.50;;;14.80;95.90;;;;;;5074226;28;20024;-76
2021/06/06 01:38:38;;;;;;;55.25;26.58;;;14.80;95.90;;;;;;5075329;28;20028;-76
2021/06/06 01:41:11;;;;;;;43.38;23.10;;;14.80;95.90;;;;;;5075280;28;20036;-76
2021/06/06 01:43:40;;;;;;;53.55;24.90;;;14.80;95.90;;;;;;5073699;28;20043;-76
2021/06/06 01:46:11;;;;;;;43.75;23.42;;;14.80;95.90;;;;;;5073692;28;20024;-76
2021/06/06 01:48:39;;;;;;;49.40;23.48;;;14.80;95.90;;;;;;5075677;28;20021;-76
2021/06/06 01:51:11;;;;;;;52.92;24.30;;;14.80;95.90;;;;;;5057487;28;20016;-76
2021/06/06 01:53:41;;;;;;;45.75;21.45;;;14.80;95.80;;;;;;5074063;28;20021;-76
2021/06/06 01:56:07;;;;;;;43.70;23.60;;;14.80;95.80;;;;;;5073856;28;20115;-75
2021/06/06 01:58:34;;;;;;;45.60;23.10;;;14.80;95.80;;;;;;5057404;28;20059;-75
2021/06/06 02:01:11;;;;;;;47.38;22.92;;;14.80;95.70;;;;;;5073669;28;20024;-76
2021/06/06 02:03:36;;;;;;;46.40;24.85;;;14.80;95.70;;;;;;5074803;28;20048;-77
2021/06/06 02:06:03;;;;;;;49.13;24.70;;;14.80;95.70;;;;;;5057601;28;20471;-76
2021/06/06 02:08:32;;;;;;;45.45;25.30;;;14.90;95.70;;;;;;5070891;28;20024;-75
2021/06/06 02:11:05;;;;;;;39.35;23.45;;;14.80;95.70;;;;;;5074591;28;20043;-75
2021/06/06 02:13:51;;;;;;;42.13;24.67;;;14.80;95.70;;;;;;5074493;28;20051;-76
2021/06/06 02:16:23;;;;;;;43.00;25.88;;;14.80;95.70;;;;;;5073580;28;20464;-76
2021/06/06 02:18:49;;;;;;;49.88;26.65;;;14.80;95.70;;;;;;5074175;28;20020;-75
2021/06/06 02:21:16;;;;;;;52.17;26.95;;;14.80;95.60;;;;;;5073188;28;20069;-76
2021/06/06 02:23:44;;;;;;;51.60;27.42;;;14.80;95.70;;;;;;5074507;28;20024;-76
2021/06/06 02:26:15;;;;;;;53.20;28.00;;;14.80;95.70;;;;;;5073001;28;20356;-75
2021/06/06 02:29:18;;;;;;;54.70;29.95;;;14.80;95.70;;;;;;5073120;28;20016;-75
2021/06/06 02:32:06;;;;;;;64.75;31.88;;;14.80;95.80;;;;;;5072991;28;20037;-76
2021/06/06 02:34:56;;;;;;;55.78;30.75;;;14.80;95.80;;;;;;5073142;28;20480;-76
2021/06/06 02:37:37;;;;;;;60.30;30.80;;;14.80;95.80;;;;;;5074228;28;20055;-76
2021/06/06 02:40:09;;;;;;;56.92;29.73;;;14.70;95.80;;;;;;5072815;28;20055;-76
2021/06/06 02:42:41;;;;;;;54.25;28.85;;;14.80;95.80;;;;;;5074313;28;20028;-77
2021/06/06 02:45:22;;;;;;;50.47;29.17;;;14.70;95.80;;;;;;5073704;28;20080;-76
2021/06/06 02:47:50;;;;;;;51.33;28.33;;;14.80;95.80;;;;;;5072734;28;20017;-77
2021/06/06 02:50:25;;;;;;;56.28;29.83;;;14.80;95.80;;;;;;5072956;28;20025;-76
2021/06/06 02:52:59;;;;;;;51.92;28.30;;;14.80;95.80;;;;;;5072686;28;20055;-76
2021/06/06 02:55:27;;;;;;;;;;;14.70;95.80;;;;;;5074402;28;20031;-77
2021/06/06 02:58:00;;;;;;;55.50;28.77;;;14.80;95.80;;;;;;5073805;28;19919;-76
2021/06/06 03:00:33;;;;;;;43.67;27.52;;;14.70;95.80;;;;;;5072650;28;20404;-76
2021/06/06 03:03:06;;;;;;;51.45;30.25;;;14.70;95.80;;;;;;5074048;28;20380;-76
2021/06/06 03:05:32;;;;;;;51.78;27.52;;;14.70;95.80;;;;;;5073804;28;20020;-76
2021/06/06 03:08:01;;;;;;;51.75;29.27;;;14.70;95.80;;;;;;5039463;28;20017;-76
2021/06/06 03:10:30;;;;;;;56.88;29.85;;;14.70;95.90;;;;;;5073837;28;20376;-76
2021/06/06 03:13:00;;;;;;;52.97;29.80;;;14.70;95.80;;;;;;5056295;28;20376;-76
2021/06/06 03:15:30;;;;;;;54.85;30.30;;;14.70;95.80;;;;;;5073649;28;20025;-77
2021/06/06 03:17:57;;;;;;;57.70;31.98;;;14.70;95.80;;;;;;5073424;28;20052;-76
2021/06/06 03:20:45;;;;;;;57.70;32.75;;;14.70;95.80;;;;;;5072315;28;20021;-77
2021/06/06 03:23:15;;;;;;;58.67;31.52;;;14.70;95.80;;;;;;5073469;28;20021;-76
2021/06/06 03:26:01;;;;;;;57.88;31.55;;;14.70;95.80;;;;;;5072215;28;20090;-76
2021/06/06 03:28:33;;;;;;;60.15;32.05;;;14.70;95.80;;;;;;5073350;28;20151;-75
2021/06/06 03:31:06;;;;;;;73.82;35.53;;;14.70;95.80;;;;;;5072218;28;20495;-77
2021/06/06 03:33:46;;;;;;;76.72;37.75;;;14.80;95.80;;;;;;5072114;28;20109;-77
2021/06/06 03:36:14;;;;;;;65.60;36.63;;;14.80;95.70;;;;;;5073599;28;20024;-76
2021/06/06 03:38:40;;;;;;;70.20;36.47;;;14.80;95.80;;;;;;5071876;28;20158;-76
2021/06/06 03:41:07;;;;;;;65.78;36.67;;;14.80;95.70;;;;;;5072654;28;20104;-77
2021/06/06 03:43:33;;;;;;;57.05;33.92;;;14.80;95.70;;;;;;5077319;28;20139;-76
2021/06/06 03:45:59;;;;;;;55.92;30.42;;;14.70;95.60;;;;;;5076268;28;20376;-76
2021/06/06 03:48:26;;;;;;;48.83;29.48;;;14.80;95.70;;;;;;5077402;28;20021;-76
2021/06/06 03:50:52;;;;;;;61.58;31.30;;;14.70;95.60;;;;;;5059618;28;20021;-75
2021/06/06 03:53:20;;;;;;;50.42;32.13;;;14.80;95.60;;;;;;5059876;28;20051;-76
2021/06/06 03:55:45;;;;;;;62.38;34.67;;;14.70;95.60;;;;;;5076338;28;20052;-76
2021/06/06 03:58:11;;;;;;;64.10;35.22;;;14.80;95.70;;;;;;5075824;28;20059;-76
2021/06/06 04:00:43;;;;;;;67.72;37.33;;;14.80;95.60;;;;;;5071654;28;20020;-76
2021/06/06 04:03:09;;;;;;;61.03;34.33;;;14.80;95.60;;;;;;5056910;28;20025;-75
2021/06/06 04:05:35;;;;;;;65.35;36.97;;;14.80;95.60;;;;;;5055690;28;20022;-76
2021/06/06 04:08:02;;;;;;;73.22;35.97;;;14.80;95.50;;;;;;5039144;28;20017;-75
2021/06/06 04:10:28;;;;;;;67.88;37.08;;;14.70;95.50;;;;;;5055627;28;20049;-76
2021/06/06 04:12:53;;;;;;;59.55;34.78;;;14.80;95.50;;;;;;5039302;28;20059;-76
2021/06/06 04:15:19;;;;;;;51.65;31.17;;;14.80;95.50;;;;;;5038934;28;20136;-76
2021/06/06 04:17:45;;;;;;;51.53;31.23;;;14.80;95.50;;;;;;5039415;28;20056;-76
2021/06/06 04:20:12;;;;;;;54.97;31.58;;;14.80;95.50;;;;;;5055404;28;20028;-76
2021/06/06 04:22:38;;;;;;;52.30;30.05;;;14.80;95.50;;;;;;5039436;28;20423;-75
2021/06/06 04:25:09;;;;;;;51.10;29.40;;;14.70;95.50;;;;;;5057054;28;20028;-75
2021/06/06 04:27:35;;;;;;;48.65;27.65;;;14.70;95.50;;;;;;5055712;28;20446;-76
2021/06/06 04:30:01;;;;;;;53.75;29.95;;;14.70;95.60;;;;;;5055715;28;20040;-76
2021/06/06 04:32:27;;;;;;;56.35;29.80;;;14.70;95.50;;;;;;5038761;28;20021;-76
2021/06/06 04:34:52;;;;;;;45.60;26.33;;;14.80;95.60;;;;;;5056666;28;20096;-75
2021/06/06 04:37:19;;;;;;;49.47;28.05;;;14.70;95.50;;;;;;5055430;28;20171;-76
2021/06/06 04:39:45;;;;;;;52.72;27.75;;;14.70;95.60;;;;;;5038567;28;20075;-76
2021/06/06 04:42:16;;;;;;;53.60;28.05;;;14.70;95.50;;;;;;5055125;28;20044;-76
2021/06/06 04:44:42;;;;;;;48.60;28.83;;;14.70;95.60;;;;;;5055030;28;20068;-75
2021/06/06 04:47:09;;;;;;;47.60;27.67;;;14.70;95.60;;;;;;5055207;28;20100;-76
2021/06/06 04:49:36;;;;;;;47.95;27.00;;;14.60;95.60;;;;;;5039165;28;20104;-76
2021/06/06 04:52:03;;;;;;;48.80;27.25;;;14.70;95.70;;;;;;5054570;28;20025;-76
2021/06/06 04:54:28;;;;;;;43.47;26.67;;;14.60;95.70;;;;;;5055025;28;20025;-75
2021/06/06 04:56:54;;;;;;;48.22;26.90;;;14.60;95.70;;;;;;5054988;28;20083;-75
2021/06/06 04:59:20;;;;;;;47.80;25.35;;;14.60;95.80;;;;;;5055962;28;20422;-76
2021/06/06 05:01:46;;;;;;;42.28;24.08;;;14.60;95.80;;;;;;5054921;28;20078;-76
2021/06/06 05:04:11;;;;;;;43.67;24.33;;;14.60;96.10;;;;;;5054711;28;20389;-76
2021/06/06 05:06:37;;;;;;;38.20;23.30;;;14.60;95.80;;;;;;5054688;28;20074;-77
2021/06/06 05:09:04;;;;;;;47.97;25.85;;;14.60;95.80;;;;;;5038173;28;20038;-76
2021/06/06 05:11:30;;;;;;;47.42;25.63;;;14.60;95.90;;;;;;5055689;28;20469;-75
2021/06/06 05:13:56;;;;;;;42.65;24.52;;;14.60;95.90;;;;;;5055460;28;20033;-77
2021/06/06 05:16:22;;;;;;;51.40;27.45;;;14.60;95.90;;;;;;5054827;28;20102;-76
2021/06/06 05:18:47;;;;;;;45.05;23.95;;;14.60;95.90;;;;;;5055952;28;20033;-76
2021/06/06 05:21:13;;;;;;;46.13;24.27;;;14.70;96.00;;;;;;5038069;28;20037;-77
2021/06/06 05:23:39;;;;;;;45.30;25.77;;;14.60;96.00;;;;;;5054294;28;20366;-76
2021/06/06 05:26:05;;;;;;;44.67;24.85;;;14.70;96.00;;;;;;5054163;28;20024;-76
2021/06/06 05:28:35;;;;;;;43.15;25.30;;;14.70;96.20;;;;;;5037737;28;20032;-76
2021/06/06 05:31:01;;;;;;;40.92;23.85;;;14.70;96.00;;;;;;5054389;28;20017;-76
2021/06/06 05:33:27;;;;;;;40.20;21.52;;;14.70;96.00;;;;;;5054519;28;20033;-76
2021/06/06 05:35:53;;;;;;;40.95;24.33;;;14.70;96.10;;;;;;5037460;28;20534;-77
2021/06/06 05:38:21;;;;;;;45.05;24.33;;;14.70;96.10;;;;;;5055472;28;20050;-76
2021/06/06 05:40:48;;;;;;;37.22;23.10;;;14.70;96.10;;;;;;5054162;28;20029;-77
2021/06/06 05:43:17;;;;;;;42.35;23.70;;;14.70;96.10;;;;;;5055137;28;20473;-76
2021/06/06 05:45:42;;;;;;;39.72;22.42;;;14.80;96.40;;;;;;5055178;28;20045;-76
2021/06/06 05:48:08;;;;;;;37.03;23.17;;;14.80;96.10;;;;;;5054422;28;20029;-76
2021/06/06 05:50:38;;;;;;;38.35;23.10;;;14.90;96.10;;;;;;5055521;28;20032;-75
2021/06/06 05:53:04;;;;;;;45.38;25.20;;;14.90;96.10;;;;;;5055252;28;20441;-76
2021/06/06 05:55:30;;;;;;;41.47;23.85;;;14.90;96.10;;;;;;5053759;28;20029;-77
2021/06/06 05:57:56;;;;;;;38.67;21.83;;;14.90;96.10;;;;;;5054352;28;20040;-77
2021/06/06 06:00:35;;;;;;;42.08;25.83;;;14.90;96.30;;;;;;5053837;28;20029;-77
2021/06/06 06:03:01;;;;;;;43.90;27.35;;;14.90;96.00;;;;;;5053892;28;20029;-75
2021/06/06 06:05:26;;;;;;;42.45;26.50;;;14.90;96.10;;;;;;5052664;28;20083;-77
2021/06/06 06:07:52;;;;;;;38.78;24.63;;;14.90;96.10;;;;;;5053282;28;20447;-78
2021/06/06 06:10:24;;;;;;;38.15;25.05;;;14.90;96.10;;;;;;5036487;28;20115;-77
2021/06/06 06:12:50;;;;;;;47.28;26.23;;;14.90;96.10;;;;;;5053555;28;20112;-77
2021/06/06 06:15:17;;;;;;;39.28;24.38;;;15.00;96.10;;;;;;5036551;28;20052;-76
2021/06/06 06:17:43;;;;;;;40.95;23.65;;;15.00;96.10;;;;;;5053198;28;20024;-77
2021/06/06 06:20:13;;;;;;;40.08;23.83;;;15.00;96.10;;;;;;5053114;28;20036;-77
2021/06/06 06:22:39;;;;;;;41.38;26.30;;;15.00;96.10;;;;;;5054798;28;20075;-77
2021/06/06 06:25:07;;;;;;;42.50;26.00;;;15.00;96.10;;;;;;5053319;28;20128;-77
2021/06/06 06:27:33;;;;;;;46.20;25.80;;;15.00;96.10;;;;;;5053107;28;20025;-77
2021/06/06 06:29:59;;;;;;;42.05;25.80;;;15.00;96.10;;;;;;5036836;28;20033;-77
2021/06/06 06:32:26;;;;;;;46.75;26.83;;;15.10;96.10;;;;;;5054305;28;20033;-77
2021/06/06 06:34:52;;;;;;;42.20;27.42;;;15.10;96.10;;;;;;5036531;28;20035;-77
2021/06/06 06:37:18;;;;;;;52.30;30.10;;;15.10;96.00;;;;;;5036180;28;20467;-76
2021/06/06 06:39:45;;;;;;;54.90;30.75;;;15.20;96.00;;;;;;5036234;28;20032;-77
2021/06/06 06:42:11;;;;;;;53.72;29.67;;;15.20;96.00;;;;;;5054282;28;20071;-76
2021/06/06 06:44:36;;;;;;;57.97;31.95;;;15.20;95.90;;;;;;5052960;28;20072;-77
2021/06/06 06:47:02;;;;;;;48.97;29.17;;;15.30;95.90;;;;;;5036322;28;20091;-77
2021/06/06 06:49:28;;;;;;;51.60;30.45;;;15.30;95.80;;;;;;5036646;28;20033;-76
2021/06/06 06:51:54;;;;;;;53.08;30.05;;;15.30;95.70;;;;;;5036267;28;20032;-78
2021/06/06 06:54:20;;;;;;;46.22;29.13;;;15.30;95.60;;;;;;5053041;28;20024;-76
2021/06/06 06:56:46;;;;;;;46.97;27.88;;;15.40;95.70;;;;;;5035897;28;20021;-77
2021/06/06 06:59:11;;;;;;;50.22;29.05;;;15.50;95.60;;;;;;5035853;28;20094;-77
2021/06/06 07:01:37;;;;;;;44.78;27.90;;;15.50;95.50;;;;;;5052680;28;20040;-77
2021/06/06 07:04:03;;;;;;;44.28;27.02;;;15.60;95.40;;;;;;5052761;28;20148;-77
2021/06/06 07:06:28;;;;;;;44.03;26.27;;;15.70;95.40;;;;;;5036244;28;20040;-76
2021/06/06 07:08:54;;;;;;;41.10;26.02;;;15.70;95.20;;;;;;5052409;28;20500;-75
2021/06/06 07:11:22;;;;;;;37.95;24.77;;;15.80;95.40;;;;;;5035658;28;20059;-77
2021/06/06 07:13:49;;;;;;;37.65;24.85;;;15.80;95.00;;;;;;5052587;28;20017;-76
2021/06/06 07:16:16;;;;;;;35.70;23.67;;;15.90;94.80;;;;;;5052484;28;20037;-76
2021/06/06 07:18:42;;;;;;;33.28;22.65;;;16.00;94.80;;;;;;5052631;28;20029;-76
2021/06/06 07:21:12;;;;;;;41.10;23.67;;;16.00;94.60;;;;;;5035961;28;20382;-79
2021/06/06 07:23:39;;;;;;;36.95;22.27;;;16.00;94.20;;;;;;5053391;28;20393;-75
2021/06/06 07:26:12;;;;;;;32.55;21.17;;;16.00;94.20;;;;;;5053420;28;20033;-77
2021/06/06 07:28:37;;;;;;;27.65;18.63;;;16.10;94.10;;;;;;5053576;28;20483;-76
2021/06/06 07:31:05;;;;;;;29.50;19.55;;;16.10;94.10;;;;;;5035689;28;20120;-75
2021/06/06 07:33:37;;;;;;;26.38;18.02;;;16.20;93.90;;;;;;5052275;28;20082;-77
2021/06/06 07:36:04;;;;;;;27.95;18.05;;;16.20;93.70;;;;;;5053234;28;20416;-76
2021/06/06 07:38:30;;;;;;;27.98;17.33;;;16.30;93.60;;;;;;5053854;28;20031;-76
2021/06/06 07:40:57;;;;;;;28.02;17.83;;;16.40;93.60;;;;;;5051993;28;20029;-76
2021/06/06 07:43:23;;;;;;;22.92;15.68;;;16.50;93.40;;;;;;5051732;28;20025;-76
2021/06/06 07:45:50;;;;;;;24.08;16.88;;;16.50;93.30;;;;;;5051728;28;20385;-76
2021/06/06 07:48:16;;;;;;;22.00;16.20;;;16.50;93.00;;;;;;5035577;28;20021;-75
2021/06/06 07:50:44;;;;;;;23.40;15.82;;;16.50;93.20;;;;;;5053389;28;20026;-75
2021/06/06 07:53:12;;;;;;;20.40;15.65;;;16.50;92.70;;;;;;5052042;28;20103;-76
2021/06/06 07:55:38;;;;;;;19.92;15.00;;;16.50;92.40;;;;;;5051974;28;20035;-76
2021/06/06 07:58:04;;;;;;;20.05;15.27;;;16.60;92.40;;;;;;5052218;28;20025;-75
2021/06/06 08:00:36;;;;;;;19.48;14.45;;;16.60;92.30;;;;;;5052155;28;20032;-75
2021/06/06 08:03:03;;;;;;;20.38;13.77;;;16.60;92.30;;;;;;5052181;28;20017;-75
2021/06/06 08:05:29;;;;;;;18.73;13.55;;;16.60;92.20;;;;;;5035297;28;20094;-76
2021/06/06 08:07:55;;;;;;;17.63;12.63;;;16.70;92.20;;;;;;5052783;28;20469;-76
2021/06/06 08:10:24;;;;;;;17.55;11.65;;;16.70;92.20;;;;;;5051576;28;20059;-77
2021/06/06 08:12:50;;;;;;;20.05;13.38;;;16.80;92.10;;;;;;5052845;28;20354;-78
2021/06/06 08:15:16;;;;;;;19.35;13.63;;;16.80;92.00;;;;;;5052168;28;20448;-77
2021/06/06 08:17:42;;;;;;;17.60;12.35;;;16.90;91.90;;;;;;5052814;28;20049;-80
2021/06/06 08:20:13;;;;;;;17.05;11.63;;;16.90;91.90;;;;;;5052340;28;20032;-77
2021/06/06 08:22:39;;;;;;;17.95;13.23;;;17.10;91.90;;;;;;5052624;28;20494;-76
2021/06/06 08:25:08;;;;;;;16.90;12.88;;;17.00;91.50;;;;;;5034822;28;20067;-77
2021/06/06 08:27:38;;;;;;;15.55;12.85;;;17.00;91.40;;;;;;5054054;28;20096;-76
2021/06/06 08:30:11;;;;;;;17.75;12.50;;;17.00;91.10;;;;;;5056455;28;20025;-76
2021/06/06 08:32:37;;;;;;;15.40;11.20;;;17.00;91.10;;;;;;5055181;28;20021;-77
2021/06/06 08:35:04;;;;;;;13.80;11.00;;;17.00;91.20;;;;;;5038723;28;20104;-76
2021/06/06 08:37:30;;;;;;;16.33;11.63;;;17.00;91.00;;;;;;5038832;28;20115;-75
2021/06/06 08:39:55;;;;;;;15.80;10.13;;;17.00;90.70;;;;;;5055218;28;20163;-76
2021/06/06 08:42:27;;;;;;;15.43;9.88;;;17.10;90.80;;;;;;5055101;28;20033;-76
2021/06/06 08:45:13;;;;;;;13.77;9.63;;;17.20;90.90;;;;;;5054944;28;20510;-75
2021/06/06 08:47:40;;;;;;;15.18;10.02;;;17.20;90.80;;;;;;5056349;28;20017;-76
2021/06/06 08:50:22;;;;;;;12.18;8.70;;;17.30;90.50;;;;;;5054469;28;20120;-75
2021/06/06 08:53:00;;;;;;;10.82;7.60;;;17.30;90.30;;;;;;5054941;28;20021;-77
2021/06/06 08:55:44;;;;;;;16.50;8.20;;;17.40;90.30;;;;;;5055042;28;20071;-77
2021/06/06 08:58:23;;;;;;;11.15;7.82;;;17.40;90.30;;;;;;5056111;28;20071;-75
2021/06/06 09:01:02;;;;;;;12.35;8.70;;;17.50;90.20;;;;;;5055972;28;20041;-77
2021/06/06 09:03:29;;;;;;;10.40;6.90;;;17.70;90.00;;;;;;5054667;28;20472;-76
2021/06/06 09:06:02;;;;;;;12.98;7.25;;;17.80;90.00;;;;;;5054711;28;20033;-76
2021/06/06 09:08:32;;;;;;;10.25;6.75;;;18.00;89.50;;;;;;5055901;28;20033;-75
2021/06/06 09:11:02;;;;;;;9.98;6.38;;;18.20;88.80;;;;;;5054570;28;20024;-76
2021/06/06 09:13:31;;;;;;;12.80;6.60;;;18.20;87.90;;;;;;5056097;28;20028;-76
2021/06/06 09:16:19;;;;;;;9.88;6.50;;;18.40;88.10;;;;;;5054719;28;20033;-77
2021/06/06 09:18:47;;;;;;;8.70;5.78;;;18.50;87.70;;;;;;5055551;28;20376;-75
2021/06/06 09:21:19;;;;;;;9.02;5.38;;;18.60;86.90;;;;;;5054670;28;20025;-75
2021/06/06 09:23:51;;;;;;;10.73;5.88;;;18.70;86.50;;;;;;5038189;28;20377;-75
2021/06/06 09:26:18;;;;;;;9.88;5.55;;;18.80;85.80;;;;;;5055718;28;20038;-75
2021/06/06 09:29:01;;;;;;;11.32;6.20;;;19.00;85.90;;;;;;5054476;28;20032;-76
2021/06/06 09:31:27;;;;;;;9.15;6.05;;;19.10;84.80;;;;;;5054290;28;20024;-75
2021/06/06 09:33:52;;;;;;;9.32;6.03;;;19.20;83.90;;;;;;5054273;28;20017;-75
2021/06/06 09:36:25;;;;;;;7.82;5.63;;;19.30;83.50;;;;;;5054499;28;20603;-75
2021/06/06 09:39:02;;;;;;;11.02;5.80;;;19.40;83.40;;;;;;5054143;28;20029;-76
2021/06/06 09:41:36;;;;;;;9.50;5.60;;;19.50;82.40;;;;;;5055442;28;20021;-75
2021/06/06 09:44:14;;;;;;;;;;;19.50;82.40;;;;;;5053871;28;20992;-77
2021/06/06 09:46:54;;;;;;;7.07;4.75;;;19.70;82.30;;;;;;5053998;28;19978;-77
2021/06/06 09:49:46;;;;;;;11.27;4.80;;;19.90;82.30;;;;;;5055248;28;20052;-77
2021/06/06 09:52:18;;;;;;;6.93;4.53;;;20.10;81.60;;;;;;5055447;28;20021;-77
2021/06/06 09:54:51;;;;;;;9.00;4.13;;;20.20;81.10;;;;;;5054042;28;20380;-76
2021/06/06 09:57:38;;;;;;;7.45;4.28;;;20.40;80.20;;;;;;5053771;28;20029;-76
2021/06/06 10:00:18;;;;;;;7.75;3.88;;;20.60;79.90;;;;;;5055010;28;20082;-77
2021/06/06 10:03:00;;;;;;;6.47;4.20;;;20.70;79.90;;;;;;5055350;28;20449;-77
2021/06/06 10:05:30;;;;;;;7.28;4.68;;;20.80;78.90;;;;;;5054606;28;20125;-77
2021/06/06 10:08:04;;;;;;;7.00;4.78;;;21.00;78.80;;;;;;5053365;28;20017;-77
2021/06/06 10:10:40;;;;;;;8.15;4.25;;;21.00;78.20;;;;;;5052914;28;20021;-76
2021/06/06 10:13:11;;;;;;;7.30;4.45;;;21.20;77.70;;;;;;5053243;28;20065;-76
2021/06/06 10:15:52;;;;;;;7.97;4.18;;;21.30;76.70;;;;;;5052874;28;20032;-77
2021/06/06 10:18:35;;;;;;;5.65;3.40;;;21.40;75.50;;;;;;5053332;28;20119;-75
2021/06/06 10:21:04;;;;;;;6.45;4.00;;;21.40;75.00;;;;;;5053157;28;20048;-76
2021/06/06 10:23:34;;;;;;;6.03;4.30;;;21.40;74.40;;;;;;5053133;28;20036;-76
2021/06/06 10:26:10;;;;;;;7.38;3.92;;;21.30;73.20;;;;;;5054311;28;20096;-76
2021/06/06 10:28:44;;;;;;;7.18;3.78;;;21.20;74.00;;;;;;5053308;28;20055;-77
2021/06/06 10:31:18;;;;;;;6.65;3.80;;;21.30;73.90;;;;;;5054407;28;20104;-77
2021/06/06 10:34:03;;;;;;;6.10;3.47;;;21.40;73.70;;;;;;5053342;28;20017;-77
2021/06/06 10:36:32;;;;;;;6.18;3.60;;;21.50;73.60;;;;;;5053127;28;20123;-76
2021/06/06 10:38:59;;;;;;;7.57;4.82;;;21.60;73.10;;;;;;5054186;28;20028;-75
2021/06/06 10:41:30;;;;;;;5.55;3.55;;;21.60;72.50;;;;;;5053204;28;20453;-75
2021/06/06 10:44:19;;;;;;;4.65;3.25;;;21.60;71.60;;;;;;5054105;28;20032;-78
2021/06/06 10:47:11;;;;;;;7.05;3.63;;;21.70;71.50;;;;;;5053125;28;20087;-74
2021/06/06 10:50:04;;;;;;;6.47;3.95;;;21.80;71.30;;;;;;5052363;28;20032;-76
2021/06/06 10:52:38;;;;;;;5.97;3.05;;;21.80;71.50;;;;;;5050362;28;20029;-79
2021/06/06 10:55:22;;;;;;;6.93;3.95;;;21.90;71.40;;;;;;5052449;28;20020;-75
2021/06/06 10:57:48;;;;;;;6.68;3.67;;;21.90;71.00;;;;;;5052360;28;20029;-76
2021/06/06 11:00:53;;;;;;;6.47;3.42;;;21.90;70.90;;;;;;5052695;28;20029;-76
2021/06/06 11:03:21;;;;;;;7.43;4.07;;;21.90;70.20;;;;;;5052391;28;20064;-75
2021/06/06 11:05:53;;;;;;;9.07;4.38;;;21.80;69.90;;;;;;5053572;28;20060;-75
2021/06/06 11:08:27;;;;;;;6.05;3.65;;;21.60;70.40;;;;;;5053869;28;20033;-76
2021/06/06 11:11:08;;;;;;;5.70;3.28;;;21.60;70.40;;;;;;5052552;28;20025;-75
2021/06/06 11:13:43;;;;;;;4.78;3.25;;;21.60;70.70;;;;;;5052226;28;20025;-75
2021/06/06 11:16:31;;;;;;;7.68;3.42;;;21.60;71.10;;;;;;5053906;28;20503;-75
2021/06/06 11:19:08;;;;;;;5.55;3.50;;;21.70;70.70;;;;;;5052420;28;20029;-77
2021/06/06 11:21:45;;;;;;;6.40;3.80;;;21.80;70.90;;;;;;5053201;28;20431;-76
2021/06/06 11:24:37;;;;;;;4.45;3.17;;;22.10;71.00;;;;;;5053668;28;20090;-76
2021/06/06 11:27:06;;;;;;;4.45;2.95;;;22.30;70.50;;;;;;5053745;28;20081;-75
2021/06/06 11:29:52;;;;;;;6.45;3.28;;;22.50;69.90;;;;;;5053252;28;20116;-75
2021/06/06 11:32:45;;;;;;;6.78;3.13;;;22.60;69.00;;;;;;5051953;28;20028;-74
2021/06/06 11:35:35;;;;;;;6.73;3.03;;;22.60;69.10;;;;;;5051135;28;20029;-75
2021/06/06 11:38:42;;;;;;;5.80;3.08;;;22.60;68.70;;;;;;5053555;28;20088;-75
2021/06/06 11:41:23;;;;;;;6.90;3.88;;;22.70;68.60;;;;;;5035888;28;20049;-75
2021/06/06 11:43:49;;;;;;;5.65;3.63;;;22.70;68.00;;;;;;5052837;28;20029;-75
2021/06/06 11:46:37;;;;;;;5.95;3.35;;;22.80;67.70;;;;;;5052030;28;20487;-75
2021/06/06 11:49:25;;;;;;;5.75;3.75;;;22.80;66.60;;;;;;5053311;28;20025;-77
2021/06/06 11:51:51;;;;;;;6.75;2.90;;;22.90;67.00;;;;;;5051880;28;20028;-75
2021/06/06 11:54:40;;;;;;;4.40;2.72;;;23.20;66.30;;;;;;5035212;28;20026;-75
2021/06/06 11:57:12;;;;;;;4.78;2.47;;;23.50;65.70;;;;;;5052173;28;20048;-75
2021/06/06 11:59:50;;;;;;;4.68;2.80;;;23.70;65.60;;;;;;5052013;28;20020;-75
2021/06/06 12:02:20;;;;;;;5.60;3.03;;;23.70;64.80;;;;;;5053979;28;20033;-75
2021/06/06 12:04:45;;;;;;;4.15;2.15;;;23.90;65.00;;;;;;5057216;28;20026;-75
2021/06/06 12:07:18;;;;;;;4.60;2.50;;;24.30;65.70;;;;;;5056117;28;20047;-75
2021/06/06 12:09:48;;;;;;;4.88;3.60;;;24.50;64.30;;;;;;5056947;28;20090;-74
2021/06/06 12:12:22;;;;;;;5.88;2.50;;;24.60;62.80;;;;;;5055855;28;20013;-74
2021/06/06 12:15:01;;;;;;;4.63;2.20;;;24.50;62.10;;;;;;5055878;28;20025;-74
2021/06/06 12:17:27;;;;;;;5.05;2.08;;;24.30;61.90;;;;;;5055548;28;20453;-75
2021/06/06 12:19:55;;;;;;;6.30;1.95;;;24.30;61.80;;;;;;5055737;28;20036;-75
2021/06/06 12:22:33;;;;;;;4.00;2.28;;;24.30;61.40;;;;;;5056808;28;20033;-74
2021/06/06 12:25:01;;;;;;;3.45;1.70;;;24.40;61.00;;;;;;5055406;28;20033;-75
2021/06/06 12:27:30;;;;;;;4.18;2.00;;;24.50;61.20;;;;;;5056771;28;20094;-75
2021/06/06 12:29:59;;;;;;;4.80;1.92;;;24.60;61.00;;;;;;5039222;28;20033;-75
2021/06/06 12:32:33;;;;;;;4.65;1.60;;;24.50;60.20;;;;;;5056678;28;20017;-75
2021/06/06 12:35:17;;;;;;;4.60;1.60;;;24.40;59.30;;;;;;5056588;28;20028;-75
2021/06/06 12:37:43;;;;;;;;;;;24.30;59.00;;;;;;5055778;28;20021;-74
2021/06/06 12:40:13;;;;;;;3.90;1.80;;;24.20;58.80;;;;;;5056562;28;20249;-74
2021/06/06 12:42:39;;;;;;;4.82;1.55;;;24.00;58.10;;;;;;5056282;28;20423;-73
2021/06/06 12:45:10;;;;;;;3.17;1.52;;;23.80;58.40;;;;;;5056145;28;20431;-75
2021/06/06 12:47:39;;;;;;;3.05;1.33;;;23.60;58.90;;;;;;5055497;28;20442;-75
2021/06/06 12:50:22;;;;;;;4.03;1.58;;;23.70;60.70;;;;;;5056333;28;20021;-75
2021/06/06 12:52:57;;;;;;;3.38;1.30;;;24.10;60.20;;;;;;5055980;28;20025;-75